This is the latest recevied weather packets stored in our database for station/object WZ9ZZZ-1. If no packets are shown the sender has not sent any weather packets the latest 10 day(s).
| Time | Temp. | Humidity | Pressure | Rain* | Wind** | Luminosity | Snow |
|---|---|---|---|---|---|---|---|
| 1777214767 | 25.56° C | 92% | 1013.6 hPa | 0 mm | - | 52 W/m² | - |
| 1777214461 | 25.56° C | 92% | 1013.6 hPa | 0 mm | - | 114 W/m² | - |
| 1777214156 | 25.56° C | 92% | 1013.4 hPa | 0 mm | - | 190 W/m² | - |
| 1777213850 | 25.56° C | 92% | 1013.8 hPa | 0 mm | - | 108 W/m² | - |
| 1777213546 | 25° C | 93% | 1013.8 hPa | 0 mm | - | 98 W/m² | - |
| 1777213243 | 25° C | 93% | 1013.7 hPa | 0 mm | - | 103 W/m² | - |
| 1777212939 | 25° C | 93% | 1014 hPa | 0 mm | - | 40 W/m² | - |
| 1777212638 | 25° C | 93% | 1013.9 hPa | 0 mm | - | 46 W/m² | - |
| 1777212335 | 25° C | 93% | 1013.9 hPa | 0 mm | - | 47 W/m² | - |
| 1777212032 | 25° C | 93% | 1013.7 hPa | 0 mm | - | 42 W/m² | - |
| 1777211727 | 25.56° C | 93% | 1013.6 hPa | 0 mm | - | 62 W/m² | - |
| 1777211426 | 25° C | 93% | 1013.5 hPa | 0 mm | - | 99 W/m² | - |
| 1777211122 | 25° C | 94% | 1013.6 hPa | 0 mm | - | 103 W/m² | - |
| 1777210819 | 25° C | 94% | 1013.4 hPa | 0 mm | - | 98 W/m² | - |
| 1777210517 | 25° C | 94% | 1013.5 hPa | 0 mm | - | 71 W/m² | - |
| 1777210215 | 25° C | 94% | 1013.5 hPa | 0 mm | - | 70 W/m² | - |
| 1777209911 | 25° C | 94% | 1013.5 hPa | 0 mm | - | 88 W/m² | - |
| 1777209606 | 25° C | 94% | 1013.1 hPa | 0 mm | - | 75 W/m² | - |
| 1777209302 | 25° C | 94% | 1013.2 hPa | 0 mm | - | 52 W/m² | - |
| 1777208999 | 25° C | 94% | 1013.1 hPa | 0 mm | - | 42 W/m² | - |
| 1777208695 | 25° C | 94% | 1013.3 hPa | 0 mm | - | 43 W/m² | - |
| 1777208391 | 25° C | 94% | 1013.2 hPa | 0 mm | - | 54 W/m² | - |
| 1777208089 | 25° C | 94% | 1013 hPa | 0 mm | - | 64 W/m² | - |
| 1777207784 | 25° C | 94% | 1013 hPa | 0 mm | - | 64 W/m² | - |
| 1777207479 | 25° C | 94% | 1013 hPa | 0 mm | - | 66 W/m² | - |
* Rain latest hour (hover to see other rain measurements)
** Current wind speed in m/s (hover to see current wind gust speed)